createdAt,value
2019-01-18T00:01:01.403Z,14.98
2019-01-18T00:03:28.585Z,14.40
2019-01-18T00:05:55.763Z,15.88
2019-01-18T00:08:22.782Z,14.47
2019-01-18T00:10:49.964Z,13.08
2019-01-18T00:13:17.667Z,13.58
2019-01-18T00:15:44.793Z,10.65
2019-01-18T00:18:12.447Z,7.67
2019-01-18T00:20:39.708Z,8.33
2019-01-18T00:23:06.836Z,7.35
2019-01-18T00:25:33.899Z,5.75
2019-01-18T00:28:00.904Z,5.90
2019-01-18T00:30:27.598Z,5.47
2019-01-18T00:32:54.591Z,6.65
2019-01-18T00:35:22.411Z,5.33
2019-01-18T00:37:50.179Z,6.42
2019-01-18T00:40:17.829Z,7.12
2019-01-18T00:42:44.609Z,5.03
2019-01-18T00:45:13.242Z,3.83
2019-01-18T00:47:40.900Z,2.40
2019-01-18T00:50:08.669Z,7.60
2019-01-18T00:52:35.733Z,4.67
2019-01-18T00:55:03.398Z,6.90
2019-01-18T00:57:30.492Z,5.05
2019-01-18T00:59:58.213Z,6.85
2019-01-18T01:02:25.134Z,8.65
2019-01-18T01:04:52.276Z,3.40
2019-01-18T01:07:18.854Z,5.75
2019-01-18T01:09:46.595Z,3.87
2019-01-18T01:12:15.284Z,4.85
2019-01-18T01:14:42.958Z,4.35
2019-01-18T01:17:10.104Z,2.77
2019-01-18T01:19:37.756Z,3.67
2019-01-18T01:22:05.532Z,2.55
2019-01-18T01:24:32.645Z,2.37
2019-01-18T01:26:59.629Z,2.75
2019-01-18T01:29:26.620Z,3.35
2019-01-18T01:31:53.683Z,1.62
2019-01-18T01:34:20.735Z,1.70
2019-01-18T01:36:48.428Z,2.27
2019-01-18T01:39:16.280Z,1.20
2019-01-18T01:41:43.281Z,1.27
2019-01-18T01:44:11.017Z,1.62
2019-01-18T01:46:38.770Z,2.52
2019-01-18T01:49:05.821Z,1.95
2019-01-18T01:51:33.587Z,1.50
2019-01-18T01:54:01.337Z,3.25
2019-01-18T01:56:29.021Z,2.25
2019-01-18T01:58:55.897Z,2.52
2019-01-18T02:01:22.921Z,2.15
2019-01-18T02:03:49.949Z,1.87
2019-01-18T02:06:17.596Z,2.02
2019-01-18T02:08:44.663Z,3.05
2019-01-18T02:11:12.311Z,3.08
2019-01-18T02:13:40.195Z,3.05
2019-01-18T02:16:07.136Z,2.47
2019-01-18T02:18:34.117Z,2.62
2019-01-18T02:21:01.183Z,2.77
2019-01-18T02:23:28.247Z,1.95
2019-01-18T02:25:55.925Z,4.28
2019-01-18T02:28:23.699Z,2.85
2019-01-18T02:30:50.707Z,2.40
2019-01-18T02:33:17.770Z,2.95
2019-01-18T02:35:44.834Z,4.35
2019-01-18T02:38:12.523Z,4.03
2019-01-18T02:40:40.692Z,5.55
2019-01-18T02:43:08.352Z,5.55
2019-01-18T02:45:36.062Z,4.17
2019-01-18T02:48:03.144Z,4.30
2019-01-18T02:50:30.212Z,4.72
2019-01-18T02:52:57.225Z,2.70
2019-01-18T02:55:29.011Z,3.80
2019-01-18T02:57:54.319Z,3.80
2019-01-18T03:00:21.374Z,3.15
2019-01-18T03:02:49.146Z,4.40
2019-01-18T03:05:16.141Z,3.80
2019-01-18T03:07:42.748Z,3.12
2019-01-18T03:10:10.477Z,3.00
2019-01-18T03:12:37.460Z,2.45
2019-01-18T03:15:04.547Z,2.85
2019-01-18T03:17:31.987Z,3.35
2019-01-18T03:19:59.095Z,2.02
2019-01-18T03:22:25.921Z,3.42
2019-01-18T03:24:53.777Z,5.15
2019-01-18T03:27:21.470Z,4.75
2019-01-18T03:29:49.230Z,3.37
2019-01-18T03:32:16.344Z,2.65
2019-01-18T03:34:43.372Z,2.98
2019-01-18T03:37:10.496Z,3.12
2019-01-18T03:39:38.232Z,3.27
2019-01-18T03:42:05.232Z,7.58
2019-01-18T03:44:32.396Z,5.17
2019-01-18T03:47:00.082Z,2.83
2019-01-18T03:49:27.598Z,3.98
2019-01-18T03:51:55.420Z,4.00
2019-01-18T03:54:23.093Z,3.83
2019-01-18T03:56:50.856Z,3.12
2019-01-18T03:59:17.941Z,2.40
2019-01-18T04:01:44.989Z,3.30
2019-01-18T04:04:11.993Z,4.35
2019-01-18T04:06:39.737Z,3.35
2019-01-18T04:09:07.504Z,6.05
2019-01-18T04:11:35.176Z,4.03
2019-01-18T04:14:02.276Z,4.20
2019-01-18T04:16:29.992Z,4.05
2019-01-18T04:18:57.637Z,2.42
2019-01-18T04:21:24.816Z,3.10
2019-01-18T04:23:52.573Z,1.40
2019-01-18T04:26:20.225Z,5.22
2019-01-18T04:28:47.638Z,1.75
2019-01-18T04:31:15.364Z,3.60
2019-01-18T04:33:43.009Z,3.10
2019-01-18T04:36:10.115Z,4.17
2019-01-18T04:38:36.892Z,3.02
2019-01-18T04:41:03.899Z,3.40
2019-01-18T04:43:30.942Z,4.80
2019-01-18T04:45:58.673Z,3.08
2019-01-18T04:48:25.660Z,4.58
2019-01-18T04:50:53.487Z,5.22
2019-01-18T04:53:21.240Z,3.83
2019-01-18T04:55:47.793Z,3.08
2019-01-18T04:58:15.449Z,3.50
2019-01-18T05:00:42.446Z,4.78
2019-01-18T05:03:09.561Z,3.47
2019-01-18T05:05:36.656Z,5.70
2019-01-18T05:08:04.333Z,3.37
2019-01-18T05:10:32.007Z,5.28
2019-01-18T05:12:59.063Z,4.67
2019-01-18T05:15:26.723Z,4.53
2019-01-18T05:17:53.867Z,5.08
2019-01-18T05:20:21.537Z,6.03
2019-01-18T05:22:48.553Z,4.45
2019-01-18T05:25:16.226Z,7.55
2019-01-18T05:27:43.908Z,5.58
2019-01-18T05:30:11.680Z,3.80
2019-01-18T05:32:38.768Z,5.70
2019-01-18T05:35:06.477Z,7.37
2019-01-18T05:37:33.481Z,3.98
2019-01-18T05:40:01.178Z,3.45
2019-01-18T05:42:28.149Z,5.10
2019-01-18T05:44:55.913Z,5.80
2019-01-18T05:47:23.022Z,4.70
2019-01-18T05:49:50.053Z,6.58
2019-01-18T05:52:17.177Z,6.92
2019-01-18T05:54:44.908Z,6.90
2019-01-18T05:57:11.948Z,5.45
2019-01-18T05:59:39.010Z,5.78
2019-01-18T06:02:06.185Z,6.33
2019-01-18T06:04:32.838Z,7.80
2019-01-18T06:07:02.678Z,5.97
2019-01-18T06:09:29.473Z,5.75
2019-01-18T06:11:56.141Z,7.05
2019-01-18T06:14:23.429Z,4.33
2019-01-18T06:16:50.107Z,5.65
2019-01-18T06:19:18.559Z,4.95
2019-01-18T06:21:45.513Z,7.78
2019-01-18T06:24:15.735Z,5.83
2019-01-18T06:26:43.242Z,8.80
2019-01-18T06:29:18.852Z,7.72
2019-01-18T06:31:46.045Z,7.47
2019-01-18T06:34:12.691Z,6.53
2019-01-18T06:36:39.774Z,5.92
2019-01-18T06:39:06.933Z,4.60
2019-01-18T06:41:33.525Z,8.68
2019-01-18T06:44:00.552Z,8.53
2019-01-18T06:46:28.391Z,4.85
2019-01-18T06:48:55.021Z,6.35
2019-01-18T06:51:22.100Z,7.17
2019-01-18T06:53:48.730Z,4.72
2019-01-18T06:56:15.711Z,9.33
2019-01-18T06:58:42.286Z,5.65
2019-01-18T07:01:10.126Z,7.22
2019-01-18T07:03:36.761Z,5.55
2019-01-18T07:06:03.900Z,4.95
2019-01-18T07:08:30.951Z,7.37
2019-01-18T07:10:58.000Z,8.23
2019-01-18T07:13:24.672Z,9.15
2019-01-18T07:15:51.273Z,6.42
2019-01-18T07:18:17.871Z,7.08
2019-01-18T07:20:44.940Z,7.45
2019-01-18T07:23:11.999Z,6.70
2019-01-18T07:25:39.051Z,7.03
2019-01-18T07:28:05.759Z,10.60
2019-01-18T07:30:32.849Z,6.67
2019-01-18T07:33:00.429Z,7.45
2019-01-18T07:35:27.143Z,5.40
2019-01-18T07:37:54.208Z,8.80
2019-01-18T07:40:20.847Z,6.75
2019-01-18T07:42:47.488Z,9.30
2019-01-18T07:45:15.192Z,7.40
2019-01-18T07:47:42.236Z,5.80
2019-01-18T07:50:08.904Z,9.60
2019-01-18T07:52:35.972Z,5.00
2019-01-18T07:55:03.429Z,4.92
2019-01-18T07:57:30.371Z,8.40
2019-01-18T07:59:58.024Z,13.40
2019-01-18T08:02:25.133Z,10.00
2019-01-18T08:04:52.138Z,9.83
2019-01-18T08:07:19.544Z,10.90
2019-01-18T08:09:46.225Z,11.78
2019-01-18T08:12:13.336Z,12.78
2019-01-18T08:14:40.434Z,11.22
2019-01-18T08:17:08.010Z,7.62
2019-01-18T08:19:35.146Z,13.32
2019-01-18T08:22:02.242Z,11.48
2019-01-18T08:24:29.364Z,12.60
2019-01-18T08:26:56.029Z,8.85
2019-01-18T08:29:23.612Z,8.93
2019-01-18T08:31:50.268Z,9.73
2019-01-18T08:34:16.879Z,9.90
2019-01-18T08:36:43.990Z,6.85
2019-01-18T08:39:10.609Z,6.70
2019-01-18T08:41:37.644Z,7.15
2019-01-18T08:44:04.318Z,9.80
2019-01-18T08:46:31.407Z,9.45
2019-01-18T08:48:58.555Z,14.28
2019-01-18T08:51:25.308Z,12.80
2019-01-18T08:53:52.303Z,17.30
2019-01-18T08:56:19.024Z,14.13
2019-01-18T08:58:46.213Z,17.67
2019-01-18T09:01:14.140Z,18.25
2019-01-18T09:03:40.826Z,17.75
2019-01-18T09:06:07.585Z,22.37
2019-01-18T09:08:34.693Z,19.82
2019-01-18T09:11:01.737Z,19.45
2019-01-18T09:13:28.896Z,21.40
2019-01-18T09:15:55.620Z,18.30
2019-01-18T09:18:22.679Z,16.48
2019-01-18T09:20:49.911Z,12.10
2019-01-18T09:23:16.571Z,13.98
2019-01-18T09:25:43.276Z,12.70
2019-01-18T09:28:10.372Z,9.50
2019-01-18T09:30:37.214Z,12.18
2019-01-18T09:33:04.309Z,5.40
2019-01-18T09:35:32.106Z,8.60
2019-01-18T09:37:59.174Z,10.68
2019-01-18T09:40:25.783Z,9.30
2019-01-18T09:42:52.911Z,8.13
2019-01-18T09:45:19.518Z,6.55
2019-01-18T09:47:46.108Z,8.45
2019-01-18T09:50:13.127Z,4.87
2019-01-18T09:52:39.734Z,7.78
2019-01-18T09:55:06.336Z,8.55
2019-01-18T09:57:33.257Z,7.50
2019-01-18T09:59:59.868Z,7.80
2019-01-18T10:02:26.687Z,8.60
2019-01-18T10:04:53.770Z,7.40
2019-01-18T10:07:20.993Z,11.22
2019-01-18T10:09:48.047Z,8.73
2019-01-18T10:12:14.748Z,9.45
2019-01-18T10:14:41.351Z,7.50
2019-01-18T10:17:08.425Z,6.90
2019-01-18T10:19:35.459Z,7.90
2019-01-18T10:22:02.529Z,7.72
2019-01-18T10:24:29.095Z,8.70
2019-01-18T10:26:56.201Z,7.62
2019-01-18T10:29:28.142Z,6.92
2019-01-18T10:31:56.067Z,8.53
2019-01-18T10:34:20.601Z,8.15
2019-01-18T10:36:47.662Z,8.53
2019-01-18T10:39:15.357Z,7.62
2019-01-18T10:41:43.131Z,9.15
2019-01-18T10:44:09.762Z,13.35
2019-01-18T10:46:37.283Z,9.75
2019-01-18T10:49:03.919Z,9.35
2019-01-18T10:51:30.973Z,9.60
2019-01-18T10:53:57.671Z,8.85
2019-01-18T10:56:24.738Z,11.10
2019-01-18T10:58:51.863Z,12.93
2019-01-18T11:01:20.038Z,8.50
2019-01-18T11:03:47.250Z,7.83
2019-01-18T11:06:13.895Z,7.10
2019-01-18T11:08:41.044Z,7.87
2019-01-18T11:11:08.263Z,8.50
2019-01-18T11:13:35.404Z,11.55
2019-01-18T11:16:02.497Z,9.68
2019-01-18T11:18:29.102Z,6.70
2019-01-18T11:20:55.706Z,9.03
2019-01-18T11:23:22.807Z,8.60
2019-01-18T11:25:49.377Z,9.83
2019-01-18T11:28:16.020Z,7.62
2019-01-18T11:30:43.129Z,9.85
2019-01-18T11:33:10.167Z,9.13
2019-01-18T11:35:37.235Z,7.87
2019-01-18T11:38:03.903Z,9.83
2019-01-18T11:40:30.592Z,11.08
2019-01-18T11:42:57.645Z,8.03
2019-01-18T11:45:24.292Z,6.45
2019-01-18T11:47:51.352Z,6.12
2019-01-18T11:50:17.953Z,5.05
2019-01-18T11:52:44.612Z,6.15
2019-01-18T11:55:11.661Z,5.37
2019-01-18T11:57:38.238Z,7.05
2019-01-18T12:00:05.238Z,6.35
2019-01-18T12:02:32.308Z,8.95
2019-01-18T12:04:59.042Z,10.23
2019-01-18T12:07:25.706Z,9.10
2019-01-18T12:09:52.799Z,12.28
2019-01-18T12:12:19.441Z,9.75
2019-01-18T12:14:46.086Z,9.75
2019-01-18T12:17:13.702Z,6.80
2019-01-18T12:19:40.476Z,6.97
2019-01-18T12:22:07.210Z,9.85
2019-01-18T12:24:34.306Z,7.83
2019-01-18T12:27:00.902Z,9.70
2019-01-18T12:29:27.551Z,11.55
2019-01-18T12:31:54.165Z,7.70
2019-01-18T12:34:20.743Z,5.58
2019-01-18T12:36:47.863Z,11.80
2019-01-18T12:39:14.686Z,10.45
2019-01-18T12:41:41.435Z,10.43
2019-01-18T12:44:08.502Z,15.53
2019-01-18T12:46:35.583Z,8.68
2019-01-18T12:49:02.157Z,14.75
2019-01-18T12:51:29.275Z,10.30
2019-01-18T12:53:56.005Z,9.20
2019-01-18T12:56:22.652Z,10.05
2019-01-18T12:58:49.665Z,9.00
2019-01-18T13:01:16.843Z,11.57
2019-01-18T13:03:44.556Z,7.78
2019-01-18T13:06:12.089Z,13.48
2019-01-18T13:08:38.820Z,12.70
2019-01-18T13:11:05.856Z,11.97
2019-01-18T13:13:32.491Z,9.83
2019-01-18T13:15:59.159Z,9.98
2019-01-18T13:18:25.811Z,10.75
2019-01-18T13:20:52.479Z,11.03
2019-01-18T13:23:19.750Z,12.20
2019-01-18T13:25:46.447Z,15.98
2019-01-18T13:28:13.133Z,15.15
2019-01-18T13:30:39.834Z,13.10
2019-01-18T13:33:06.892Z,8.68
2019-01-18T13:35:33.689Z,13.80
2019-01-18T13:38:00.372Z,11.40
2019-01-18T13:40:28.125Z,10.78
2019-01-18T13:42:54.852Z,13.08
2019-01-18T13:45:24.443Z,10.38
2019-01-18T13:47:51.048Z,13.40
2019-01-18T13:50:18.142Z,11.10
2019-01-18T13:52:44.864Z,11.97
2019-01-18T13:55:11.965Z,12.43
2019-01-18T13:57:39.087Z,10.10
2019-01-18T14:00:05.747Z,9.90
2019-01-18T14:02:32.781Z,12.47
2019-01-18T14:04:59.913Z,12.20
2019-01-18T14:07:26.544Z,9.15
2019-01-18T14:09:53.699Z,11.93
2019-01-18T14:12:20.310Z,9.90
2019-01-18T14:14:47.006Z,11.93
2019-01-18T14:17:14.168Z,13.88
2019-01-18T14:19:40.875Z,13.80
2019-01-18T14:22:08.485Z,13.10
2019-01-18T14:24:35.585Z,11.60
2019-01-18T14:27:03.641Z,12.65
2019-01-18T14:29:30.762Z,14.53
2019-01-18T14:31:57.554Z,14.93
2019-01-18T14:34:26.638Z,12.00
2019-01-18T14:36:53.332Z,11.10
2019-01-18T14:39:20.545Z,12.95
2019-01-18T14:41:47.262Z,16.15
2019-01-18T14:44:14.316Z,14.25
2019-01-18T14:46:41.057Z,13.50
2019-01-18T14:49:08.133Z,10.68
2019-01-18T14:51:34.816Z,11.55
2019-01-18T14:54:02.062Z,12.37
2019-01-18T14:56:29.165Z,17.52
2019-01-18T14:58:56.216Z,13.53
2019-01-18T15:01:23.336Z,11.93
2019-01-18T15:03:54.082Z,12.33
2019-01-18T15:06:18.386Z,12.25
2019-01-18T15:08:45.505Z,11.40
2019-01-18T15:11:12.584Z,12.03
2019-01-18T15:13:39.236Z,11.20
2019-01-18T15:16:05.973Z,9.10
2019-01-18T15:18:32.679Z,11.53
2019-01-18T15:20:59.756Z,10.40
2019-01-18T15:23:26.902Z,13.93
2019-01-18T15:25:53.616Z,16.00
2019-01-18T15:28:20.245Z,6.45
2019-01-18T15:30:47.371Z,9.13
2019-01-18T15:33:13.984Z,8.63
2019-01-18T15:35:40.566Z,7.45
2019-01-18T15:38:08.367Z,9.43
2019-01-18T15:40:35.550Z,11.90
2019-01-18T15:43:02.666Z,10.05
2019-01-18T15:45:29.449Z,11.75
2019-01-18T15:47:56.133Z,11.50
2019-01-18T15:50:22.844Z,11.50
2019-01-18T15:52:50.038Z,12.05
2019-01-18T15:55:16.703Z,10.75
2019-01-18T15:57:43.370Z,7.75
2019-01-18T16:00:10.391Z,9.38
2019-01-18T16:02:37.029Z,12.03
2019-01-18T16:05:04.100Z,8.03
2019-01-18T16:07:31.124Z,8.40
2019-01-18T16:09:58.248Z,10.03
2019-01-18T16:12:25.291Z,9.23
2019-01-18T16:14:52.245Z,7.97
2019-01-18T16:17:19.436Z,9.40
2019-01-18T16:19:47.203Z,11.53
2019-01-18T16:22:15.088Z,9.95
2019-01-18T16:24:41.720Z,11.78
2019-01-18T16:27:08.577Z,10.05
2019-01-18T16:29:41.666Z,6.78
2019-01-18T16:32:08.291Z,11.85
2019-01-18T16:34:35.364Z,10.78
2019-01-18T16:37:02.471Z,8.05
2019-01-18T16:39:29.772Z,7.67
2019-01-18T16:41:56.385Z,9.43
2019-01-18T16:44:23.538Z,7.12
2019-01-18T16:46:50.593Z,9.83
2019-01-18T16:49:17.259Z,12.43
2019-01-18T16:51:44.225Z,8.68
2019-01-18T16:54:10.905Z,11.63
2019-01-18T16:56:38.004Z,8.98
2019-01-18T16:59:05.169Z,11.75
2019-01-18T17:01:31.880Z,11.53
2019-01-18T17:03:58.564Z,17.52
2019-01-18T17:06:25.292Z,14.95
2019-01-18T17:08:52.428Z,15.05
2019-01-18T17:11:19.115Z,19.25
2019-01-18T17:13:46.382Z,19.65
2019-01-18T17:16:13.025Z,21.60
2019-01-18T17:18:39.718Z,18.42
2019-01-18T17:21:06.826Z,18.85
2019-01-18T17:23:33.904Z,18.95
2019-01-18T17:26:00.926Z,21.20
2019-01-18T17:28:27.744Z,21.00
2019-01-18T17:30:54.820Z,22.90
2019-01-18T17:33:21.865Z,25.82
2019-01-18T17:35:48.606Z,20.37
2019-01-18T17:38:15.294Z,22.58
2019-01-18T17:40:42.402Z,26.07
2019-01-18T17:43:09.177Z,26.33
2019-01-18T17:45:36.654Z,31.70
2019-01-18T17:48:03.676Z,32.50
2019-01-18T17:50:30.366Z,34.65
2019-01-18T17:52:57.061Z,37.00
2019-01-18T17:55:24.949Z,33.70
2019-01-18T17:57:51.663Z,33.75
2019-01-18T18:00:18.784Z,32.25
2019-01-18T18:02:45.960Z,37.13
2019-01-18T18:05:12.645Z,35.15
2019-01-18T18:07:39.915Z,33.55
2019-01-18T18:10:06.595Z,31.45
2019-01-18T18:12:33.695Z,24.92
2019-01-18T18:15:00.455Z,28.50
2019-01-18T18:17:27.179Z,28.20
2019-01-18T18:19:54.683Z,28.70
2019-01-18T18:22:21.806Z,28.23
2019-01-18T18:24:48.835Z,27.35
2019-01-18T18:27:15.604Z,26.35
2019-01-18T18:29:42.349Z,26.90
2019-01-18T18:32:09.008Z,25.02
2019-01-18T18:34:36.153Z,29.45
2019-01-18T18:37:02.884Z,33.73
2019-01-18T18:39:31.027Z,26.30
2019-01-18T18:41:57.684Z,28.50
2019-01-18T18:44:24.348Z,26.42
2019-01-18T18:46:51.112Z,25.00
2019-01-18T18:49:20.174Z,25.88
2019-01-18T18:51:50.426Z,21.60
2019-01-18T18:54:18.147Z,21.80
2019-01-18T18:56:45.080Z,27.10
2019-01-18T18:59:11.754Z,24.67
2019-01-18T19:01:38.472Z,24.87
2019-01-18T19:04:05.166Z,31.48
2019-01-18T19:06:31.903Z,45.85
2019-01-18T19:08:59.035Z,45.35
2019-01-18T19:11:25.764Z,47.90
2019-01-18T19:13:52.428Z,47.58
2019-01-18T19:16:19.505Z,46.15
2019-01-18T19:18:46.578Z,45.48
2019-01-18T19:21:14.407Z,40.17
2019-01-18T19:23:41.591Z,38.60
2019-01-18T19:26:08.294Z,44.15
2019-01-18T19:28:35.383Z,45.33
2019-01-18T19:31:02.506Z,50.83
2019-01-18T19:33:29.555Z,51.48
2019-01-18T19:35:56.256Z,51.98
2019-01-18T19:38:23.360Z,52.10
2019-01-18T19:40:50.915Z,55.63
2019-01-18T19:43:17.974Z,47.27
2019-01-18T19:45:44.703Z,45.45
2019-01-18T19:48:11.927Z,41.90
2019-01-18T19:50:39.048Z,41.10
2019-01-18T19:53:05.817Z,40.67
2019-01-18T19:55:32.458Z,43.38
2019-01-18T19:57:59.653Z,47.98
2019-01-18T20:00:26.801Z,47.25
2019-01-18T20:02:53.559Z,53.00
2019-01-18T20:05:21.888Z,37.53
2019-01-18T20:07:49.342Z,52.73
2019-01-18T20:10:16.526Z,68.83
2019-01-18T20:12:43.249Z,103.20
2019-01-18T20:15:10.075Z,104.23
2019-01-18T20:17:36.774Z,105.12
2019-01-18T20:20:03.931Z,75.10
2019-01-18T20:22:31.230Z,77.27
2019-01-18T20:24:57.923Z,71.40
2019-01-18T20:27:24.646Z,61.60
2019-01-18T20:29:51.336Z,65.28
2019-01-18T20:32:18.568Z,59.50
2019-01-18T20:34:45.831Z,53.50
2019-01-18T20:37:12.908Z,46.90
2019-01-18T20:39:40.038Z,53.05
2019-01-18T20:42:07.223Z,67.22
2019-01-18T20:44:33.958Z,59.08
2019-01-18T20:47:00.611Z,63.20
2019-01-18T20:49:27.413Z,68.92
2019-01-18T20:51:54.067Z,73.10
2019-01-18T20:54:21.820Z,57.65
2019-01-18T20:56:49.635Z,53.48
2019-01-18T20:59:16.945Z,42.85
2019-01-18T21:01:44.498Z,43.25
2019-01-18T21:04:11.240Z,43.95
2019-01-18T21:06:37.979Z,47.65
2019-01-18T21:09:05.411Z,41.30
2019-01-18T21:11:32.787Z,45.30
2019-01-18T21:14:01.822Z,37.93
2019-01-18T21:16:28.626Z,48.23
2019-01-18T21:18:55.853Z,43.58
2019-01-18T21:21:23.552Z,47.83
2019-01-18T21:23:51.282Z,44.30
2019-01-18T21:26:18.475Z,55.70
2019-01-18T21:28:45.140Z,50.10
2019-01-18T21:31:12.146Z,44.67
2019-01-18T21:33:39.295Z,50.05
2019-01-18T21:36:06.627Z,48.20
2019-01-18T21:38:33.579Z,50.88
2019-01-18T21:41:01.048Z,53.85
2019-01-18T21:43:28.326Z,66.45
2019-01-18T21:45:55.061Z,58.02
2019-01-18T21:48:22.135Z,58.35
2019-01-18T21:50:51.158Z,56.95
2019-01-18T21:53:18.625Z,55.05
2019-01-18T21:55:45.846Z,46.30
2019-01-18T21:58:14.427Z,48.13
2019-01-18T22:00:41.635Z,42.27
2019-01-18T22:03:09.011Z,38.53
2019-01-18T22:05:35.778Z,41.77
2019-01-18T22:08:02.514Z,42.83
2019-01-18T22:10:34.514Z,41.42
2019-01-18T22:13:02.601Z,46.00
2019-01-18T22:15:29.969Z,46.28
2019-01-18T22:17:56.755Z,46.80
2019-01-18T22:20:25.172Z,49.13
2019-01-18T22:22:52.560Z,49.45
2019-01-18T22:25:19.398Z,46.73
2019-01-18T22:27:46.447Z,52.80
2019-01-18T22:30:13.309Z,49.65
2019-01-18T22:32:40.403Z,50.98
2019-01-18T22:35:07.511Z,46.30
2019-01-18T22:37:34.381Z,50.12
2019-01-18T22:40:01.423Z,54.98
2019-01-18T22:42:28.183Z,47.48
2019-01-18T22:44:55.300Z,50.03
2019-01-18T22:47:23.102Z,53.10
2019-01-18T22:49:50.865Z,52.50
2019-01-18T22:52:17.876Z,49.95
2019-01-18T22:54:45.718Z,58.75
2019-01-18T22:57:12.835Z,58.60
2019-01-18T22:59:39.861Z,54.55
2019-01-18T23:02:06.990Z,63.90
2019-01-18T23:04:33.790Z,61.10
2019-01-18T23:07:00.440Z,59.95
2019-01-18T23:09:28.152Z,54.53
2019-01-18T23:11:54.894Z,59.40
2019-01-18T23:14:21.638Z,54.77
2019-01-18T23:16:48.757Z,60.30
2019-01-18T23:19:15.909Z,56.08
2019-01-18T23:21:42.602Z,66.92
2019-01-18T23:24:09.301Z,59.75
2019-01-18T23:26:36.063Z,59.60
2019-01-18T23:29:02.846Z,64.85
2019-01-18T23:31:29.938Z,55.25
2019-01-18T23:33:56.609Z,60.20
2019-01-18T23:36:23.709Z,61.18
2019-01-18T23:38:50.407Z,55.28
2019-01-18T23:41:17.159Z,57.88
2019-01-18T23:43:44.210Z,55.48
2019-01-18T23:46:11.287Z,61.58
2019-01-18T23:48:38.414Z,63.60
2019-01-18T23:51:05.475Z,50.38
2019-01-18T23:53:32.637Z,55.28
2019-01-18T23:55:59.762Z,55.75
2019-01-18T23:58:27.486Z,49.50
